sensor_id;sensor_type;location;lat;lon;timestamp;pressure;altitude;pressure_sealevel;temperature;humidity
46944;BME280;32678;43.852;25.952;2022-09-09T00:04:57;101115.69;;;23.15;46.76
46944;BME280;32678;43.852;25.952;2022-09-09T00:09:57;101116.66;;;23.47;45.89
46944;BME280;32678;43.852;25.952;2022-09-09T00:14:59;101121.63;;;23.18;46.44
46944;BME280;32678;43.852;25.952;2022-09-09T00:19:59;101110.81;;;23.09;46.75
46944;BME280;32678;43.852;25.952;2022-09-09T00:25:00;101119.91;;;22.84;47.48
46944;BME280;32678;43.852;25.952;2022-09-09T00:30:11;101120.16;;;22.92;47.56
46944;BME280;32678;43.852;25.952;2022-09-09T00:35:13;101126.84;;;22.98;47.10
46944;BME280;32678;43.852;25.952;2022-09-09T00:40:17;101116.16;;;23.09;47.04
46944;BME280;32678;43.852;25.952;2022-09-09T00:45:19;101113.97;;;23.25;46.36
46944;BME280;32678;43.852;25.952;2022-09-09T00:50:31;101124.66;;;23.47;45.75
46944;BME280;32678;43.852;25.952;2022-09-09T00:55:33;101120.38;;;23.56;45.67
46944;BME280;32678;43.852;25.952;2022-09-09T01:00:37;101119.75;;;23.74;44.63
46944;BME280;32678;43.852;25.952;2022-09-09T01:05:39;101125.38;;;23.60;44.97
46944;BME280;32678;43.852;25.952;2022-09-09T01:10:39;101119.03;;;23.61;44.90
46944;BME280;32678;43.852;25.952;2022-09-09T01:15:44;101106.78;;;23.59;44.77
46944;BME280;32678;43.852;25.952;2022-09-09T01:20:44;101111.63;;;23.43;44.86
46944;BME280;32678;43.852;25.952;2022-09-09T01:30:59;101089.13;;;23.56;44.75
46944;BME280;32678;43.852;25.952;2022-09-09T01:36:02;101092.22;;;23.07;45.66
46944;BME280;32678;43.852;25.952;2022-09-09T01:41:08;101084.78;;;23.22;45.14
46944;BME280;32678;43.852;25.952;2022-09-09T01:46:25;101086.47;;;23.23;45.21
46944;BME280;32678;43.852;25.952;2022-09-09T01:51:22;101075.78;;;23.45;44.32
46944;BME280;32678;43.852;25.952;2022-09-09T01:56:22;101067.72;;;23.56;44.19
46944;BME280;32678;43.852;25.952;2022-09-09T02:01:24;101075.78;;;23.88;43.88
46944;BME280;32678;43.852;25.952;2022-09-09T02:06:28;101078.94;;;24.14;42.60
46944;BME280;32678;43.852;25.952;2022-09-09T02:11:35;101077.00;;;23.84;43.11
46944;BME280;32678;43.852;25.952;2022-09-09T02:16:53;101078.22;;;23.80;42.88
46944;BME280;32678;43.852;25.952;2022-09-09T02:22:00;101085.13;;;23.51;43.50
46944;BME280;32678;43.852;25.952;2022-09-09T02:26:57;101087.78;;;23.51;43.56
46944;BME280;32678;43.852;25.952;2022-09-09T02:31:57;101080.41;;;23.75;42.87
46944;BME280;32678;43.852;25.952;2022-09-09T02:37:00;101109.25;;;23.83;43.14
46944;BME280;32678;43.852;25.952;2022-09-09T02:41:58;101109.31;;;24.03;44.29
46944;BME280;32678;43.852;25.952;2022-09-09T02:47:07;101109.16;;;23.84;45.73
46944;BME280;32678;43.852;25.952;2022-09-09T02:52:07;101100.03;;;23.75;44.89
46944;BME280;32678;43.852;25.952;2022-09-09T02:57:08;101108.09;;;23.64;43.64
46944;BME280;32678;43.852;25.952;2022-09-09T03:02:08;101103.22;;;24.01;43.81
46944;BME280;32678;43.852;25.952;2022-09-09T03:07:08;101097.66;;;23.93;43.15
46944;BME280;32678;43.852;25.952;2022-09-09T03:12:05;101098.50;;;24.26;42.82
46944;BME280;32678;43.852;25.952;2022-09-09T03:17:04;101091.72;;;24.42;41.45
46944;BME280;32678;43.852;25.952;2022-09-09T03:22:06;101082.09;;;23.87;42.53
46944;BME280;32678;43.852;25.952;2022-09-09T03:27:06;101082.78;;;23.68;42.88
46944;BME280;32678;43.852;25.952;2022-09-09T03:32:05;101096.19;;;23.57;42.97
46944;BME280;32678;43.852;25.952;2022-09-09T03:37:02;101099.50;;;23.93;45.02
46944;BME280;32678;43.852;25.952;2022-09-09T03:42:08;101095.47;;;24.19;45.05
46944;BME280;32678;43.852;25.952;2022-09-09T03:47:18;101094.00;;;24.26;46.55
46944;BME280;32678;43.852;25.952;2022-09-09T03:52:15;101093.56;;;24.10;46.45
46944;BME280;32678;43.852;25.952;2022-09-09T03:57:21;101100.72;;;24.21;45.49
46944;BME280;32678;43.852;25.952;2022-09-09T04:02:19;101084.91;;;23.86;44.19
46944;BME280;32678;43.852;25.952;2022-09-09T04:07:17;101100.03;;;24.07;46.53
46944;BME280;32678;43.852;25.952;2022-09-09T04:12:14;101100.34;;;24.46;47.05
46944;BME280;32678;43.852;25.952;2022-09-09T04:17:15;101101.66;;;24.51;46.92
46944;BME280;32678;43.852;25.952;2022-09-09T04:22:13;101103.59;;;24.70;47.65
46944;BME280;32678;43.852;25.952;2022-09-09T04:27:10;101105.31;;;24.71;48.45
46944;BME280;32678;43.852;25.952;2022-09-09T04:32:06;101092.31;;;24.46;49.89
46944;BME280;32678;43.852;25.952;2022-09-09T04:37:04;101094.53;;;24.62;50.20
46944;BME280;32678;43.852;25.952;2022-09-09T04:42:01;101104.38;;;24.82;50.12
46944;BME280;32678;43.852;25.952;2022-09-09T04:46:58;101110.44;;;24.84;49.49
46944;BME280;32678;43.852;25.952;2022-09-09T04:51:55;101111.06;;;24.87;49.32
46944;BME280;32678;43.852;25.952;2022-09-09T04:56:52;101105.03;;;24.95;46.76
46944;BME280;32678;43.852;25.952;2022-09-09T05:01:50;101111.50;;;24.92;45.30
46944;BME280;32678;43.852;25.952;2022-09-09T05:06:48;101102.53;;;25.13;46.79
46944;BME280;32678;43.852;25.952;2022-09-09T05:11:44;101109.84;;;24.80;43.31
46944;BME280;32678;43.852;25.952;2022-09-09T05:17:15;101102.28;;;24.44;42.80
46944;BME280;32678;43.852;25.952;2022-09-09T05:22:12;101110.00;;;24.16;43.27
46944;BME280;32678;43.852;25.952;2022-09-09T05:27:14;101094.41;;;24.42;45.49
46944;BME280;32678;43.852;25.952;2022-09-09T05:32:11;101105.22;;;24.82;45.80
46944;BME280;32678;43.852;25.952;2022-09-09T05:37:13;101105.31;;;24.92;45.91
46944;BME280;32678;43.852;25.952;2022-09-09T05:42:11;101109.47;;;24.85;45.87
46944;BME280;32678;43.852;25.952;2022-09-09T05:47:11;101098.72;;;24.85;44.30
46944;BME280;32678;43.852;25.952;2022-09-09T05:52:07;101092.22;;;25.08;43.84
46944;BME280;32678;43.852;25.952;2022-09-09T05:57:06;101086.63;;;25.21;43.51
46944;BME280;32678;43.852;25.952;2022-09-09T06:02:03;101081.84;;;25.24;43.24
46944;BME280;32678;43.852;25.952;2022-09-09T06:07:05;101060.91;;;25.18;43.32
46944;BME280;32678;43.852;25.952;2022-09-09T06:12:02;101077.97;;;25.57;42.92
46944;BME280;32678;43.852;25.952;2022-09-09T06:17:03;101066.78;;;25.52;43.13
46944;BME280;32678;43.852;25.952;2022-09-09T06:22:05;101064.00;;;25.63;41.33
46944;BME280;32678;43.852;25.952;2022-09-09T06:27:05;101074.13;;;25.40;41.12
46944;BME280;32678;43.852;25.952;2022-09-09T06:32:06;101095.88;;;25.47;44.10
46944;BME280;32678;43.852;25.952;2022-09-09T06:37:04;101093.84;;;25.70;44.19
46944;BME280;32678;43.852;25.952;2022-09-09T06:42:08;101080.00;;;25.74;43.88
46944;BME280;32678;43.852;25.952;2022-09-09T06:47:24;101079.16;;;26.03;40.33
46944;BME280;32678;43.852;25.952;2022-09-09T06:52:22;101077.75;;;25.99;41.98
46944;BME280;32678;43.852;25.952;2022-09-09T06:57:24;101087.94;;;26.24;43.55
46944;BME280;32678;43.852;25.952;2022-09-09T07:02:45;101092.69;;;26.20;43.39
46944;BME280;32678;43.852;25.952;2022-09-09T07:07:44;101091.72;;;26.31;42.82
46944;BME280;32678;43.852;25.952;2022-09-09T07:12:45;101095.38;;;26.40;40.79
46944;BME280;32678;43.852;25.952;2022-09-09T07:17:49;101085.16;;;26.62;40.95
46944;BME280;32678;43.852;25.952;2022-09-09T07:22:47;101078.34;;;26.78;41.44
46944;BME280;32678;43.852;25.952;2022-09-09T07:27:44;101083.41;;;26.90;41.07
46944;BME280;32678;43.852;25.952;2022-09-09T07:32:41;101080.94;;;27.06;41.18
46944;BME280;32678;43.852;25.952;2022-09-09T07:37:40;101090.25;;;27.12;41.26
46944;BME280;32678;43.852;25.952;2022-09-09T07:42:37;101084.38;;;27.26;40.83
46944;BME280;32678;43.852;25.952;2022-09-09T07:47:34;101102.84;;;27.39;40.69
46944;BME280;32678;43.852;25.952;2022-09-09T07:52:33;101109.63;;;27.43;40.16
46944;BME280;32678;43.852;25.952;2022-09-09T07:57:35;101094.69;;;27.58;39.58
46944;BME280;32678;43.852;25.952;2022-09-09T08:02:33;101089.03;;;27.79;39.86
46944;BME280;32678;43.852;25.952;2022-09-09T08:07:30;101088.00;;;27.97;37.95
46944;BME280;32678;43.852;25.952;2022-09-09T08:12:27;101087.78;;;27.91;38.92
46944;BME280;32678;43.852;25.952;2022-09-09T08:17:27;101103.31;;;27.97;39.62
46944;BME280;32678;43.852;25.952;2022-09-09T08:22:29;101100.56;;;28.07;39.37
46944;BME280;32678;43.852;25.952;2022-09-09T08:27:26;101084.66;;;28.13;38.57
46944;BME280;32678;43.852;25.952;2022-09-09T08:32:24;101076.56;;;28.13;38.52
46944;BME280;32678;43.852;25.952;2022-09-09T08:37:23;101064.50;;;28.25;38.91
46944;BME280;32678;43.852;25.952;2022-09-09T08:42:23;101052.31;;;28.39;38.69
46944;BME280;32678;43.852;25.952;2022-09-09T08:47:29;101060.13;;;28.50;39.21
46944;BME280;32678;43.852;25.952;2022-09-09T08:52:37;101047.38;;;28.60;38.52
46944;BME280;32678;43.852;25.952;2022-09-09T08:57:36;101042.88;;;28.69;39.27
46944;BME280;32678;43.852;25.952;2022-09-09T09:02:36;101045.19;;;28.81;38.58
46944;BME280;32678;43.852;25.952;2022-09-09T09:07:41;101040.16;;;28.87;38.69
46944;BME280;32678;43.852;25.952;2022-09-09T09:12:51;101015.88;;;28.95;38.73
46944;BME280;32678;43.852;25.952;2022-09-09T09:17:51;101027.53;;;29.03;39.04
46944;BME280;32678;43.852;25.952;2022-09-09T09:22:53;101028.59;;;29.10;38.66
46944;BME280;32678;43.852;25.952;2022-09-09T09:27:54;100997.50;;;28.98;39.74
46944;BME280;32678;43.852;25.952;2022-09-09T09:32:56;101010.41;;;29.20;39.60
46944;BME280;32678;43.852;25.952;2022-09-09T09:37:56;101004.16;;;29.28;38.95
46944;BME280;32678;43.852;25.952;2022-09-09T09:43:16;101003.88;;;29.31;38.57
46944;BME280;32678;43.852;25.952;2022-09-09T09:48:16;100999.19;;;29.41;38.16
46944;BME280;32678;43.852;25.952;2022-09-09T09:53:20;100996.28;;;29.43;38.40
46944;BME280;32678;43.852;25.952;2022-09-09T09:58:19;100989.22;;;29.58;38.33
46944;BME280;32678;43.852;25.952;2022-09-09T10:03:22;101001.41;;;29.70;36.96
46944;BME280;32678;43.852;25.952;2022-09-09T10:08:21;101004.09;;;29.86;36.20
46944;BME280;32678;43.852;25.952;2022-09-09T10:13:18;100997.19;;;29.92;36.69
46944;BME280;32678;43.852;25.952;2022-09-09T10:23:42;101001.94;;;29.98;36.44
46944;BME280;32678;43.852;25.952;2022-09-09T10:28:55;100997.53;;;29.97;36.30
46944;BME280;32678;43.852;25.952;2022-09-09T10:33:57;100998.72;;;29.94;36.30
46944;BME280;32678;43.852;25.952;2022-09-09T10:38:58;100990.94;;;29.91;36.18
46944;BME280;32678;43.852;25.952;2022-09-09T10:44:00;100979.44;;;29.97;35.81
46944;BME280;32678;43.852;25.952;2022-09-09T10:49:03;100982.16;;;29.97;35.97
46944;BME280;32678;43.852;25.952;2022-09-09T10:54:09;100986.72;;;30.05;35.79
46944;BME280;32678;43.852;25.952;2022-09-09T10:59:12;100984.00;;;30.13;35.87
46944;BME280;32678;43.852;25.952;2022-09-09T11:04:11;100981.78;;;30.17;35.61
46944;BME280;32678;43.852;25.952;2022-09-09T11:09:14;100978.41;;;30.23;35.23
46944;BME280;32678;43.852;25.952;2022-09-09T11:14:15;100981.59;;;30.26;35.38
46944;BME280;32678;43.852;25.952;2022-09-09T11:19:17;100967.03;;;30.35;35.18
46944;BME280;32678;43.852;25.952;2022-09-09T11:24:22;100970.56;;;30.44;34.47
46944;BME280;32678;43.852;25.952;2022-09-09T11:29:25;100956.34;;;30.58;33.75
46944;BME280;32678;43.852;25.952;2022-09-09T11:34:31;100952.13;;;30.55;33.91
46944;BME280;32678;43.852;25.952;2022-09-09T11:39:44;100949.09;;;30.50;34.29
46944;BME280;32678;43.852;25.952;2022-09-09T11:44:44;100946.59;;;30.49;34.82
46944;BME280;32678;43.852;25.952;2022-09-09T11:49:41;100950.59;;;30.45;34.90
46944;BME280;32678;43.852;25.952;2022-09-09T11:54:46;100942.34;;;30.46;35.21
46944;BME280;32678;43.852;25.952;2022-09-09T11:59:49;100922.03;;;30.42;34.97
46944;BME280;32678;43.852;25.952;2022-09-09T12:04:48;100936.25;;;30.44;34.89
46944;BME280;32678;43.852;25.952;2022-09-09T12:09:51;100927.28;;;30.52;34.32
46944;BME280;32678;43.852;25.952;2022-09-09T12:15:15;100928.59;;;30.64;35.07
46944;BME280;32678;43.852;25.952;2022-09-09T12:20:14;100923.97;;;30.73;34.85
46944;BME280;32678;43.852;25.952;2022-09-09T12:25:16;100916.50;;;30.75;34.51
46944;BME280;32678;43.852;25.952;2022-09-09T12:30:18;100905.56;;;30.68;34.57
46944;BME280;32678;43.852;25.952;2022-09-09T12:35:21;100902.53;;;30.63;34.39
46944;BME280;32678;43.852;25.952;2022-09-09T12:40:21;100894.66;;;30.53;33.68
46944;BME280;32678;43.852;25.952;2022-09-09T12:45:19;100885.66;;;30.45;33.90
46944;BME280;32678;43.852;25.952;2022-09-09T12:50:19;100871.16;;;30.46;33.72
46944;BME280;32678;43.852;25.952;2022-09-09T12:55:18;100860.41;;;30.69;34.04
46944;BME280;32678;43.852;25.952;2022-09-09T13:00:17;100863.00;;;30.85;34.46
46944;BME280;32678;43.852;25.952;2022-09-09T13:05:16;100855.53;;;30.56;34.57
46944;BME280;32678;43.852;25.952;2022-09-09T13:10:13;100850.84;;;30.42;34.97
46944;BME280;32678;43.852;25.952;2022-09-09T13:15:27;100839.75;;;30.68;33.97
46944;BME280;32678;43.852;25.952;2022-09-09T13:20:24;100845.50;;;30.95;33.27
46944;BME280;32678;43.852;25.952;2022-09-09T13:25:23;100862.56;;;30.96;33.47
46944;BME280;32678;43.852;25.952;2022-09-09T13:30:22;100845.41;;;30.81;33.40
46944;BME280;32678;43.852;25.952;2022-09-09T13:35:23;100842.03;;;31.10;32.82
46944;BME280;32678;43.852;25.952;2022-09-09T13:40:22;100842.56;;;31.05;33.37
46944;BME280;32678;43.852;25.952;2022-09-09T13:45:20;100845.56;;;30.87;33.56
46944;BME280;32678;43.852;25.952;2022-09-09T13:50:20;100836.03;;;30.91;33.72
46944;BME280;32678;43.852;25.952;2022-09-09T13:55:17;100830.97;;;30.66;33.05
46944;BME280;32678;43.852;25.952;2022-09-09T14:00:15;100833.09;;;30.78;33.47
46944;BME280;32678;43.852;25.952;2022-09-09T14:05:12;100820.22;;;30.80;33.41
46944;BME280;32678;43.852;25.952;2022-09-09T14:10:08;100824.06;;;30.86;33.68
46944;BME280;32678;43.852;25.952;2022-09-09T14:15:07;100825.38;;;30.90;34.12
46944;BME280;32678;43.852;25.952;2022-09-09T14:20:04;100831.66;;;30.90;35.46
46944;BME280;32678;43.852;25.952;2022-09-09T14:25:05;100825.47;;;30.82;35.90
46944;BME280;32678;43.852;25.952;2022-09-09T14:30:02;100828.47;;;30.87;35.53
46944;BME280;32678;43.852;25.952;2022-09-09T14:35:01;100825.47;;;30.82;35.34
46944;BME280;32678;43.852;25.952;2022-09-09T14:39:58;100824.06;;;30.86;35.46
46944;BME280;32678;43.852;25.952;2022-09-09T14:44:55;100815.94;;;30.86;35.56
46944;BME280;32678;43.852;25.952;2022-09-09T14:49:52;100821.53;;;30.84;35.84
46944;BME280;32678;43.852;25.952;2022-09-09T14:54:50;100816.50;;;30.81;36.07
46944;BME280;32678;43.852;25.952;2022-09-09T14:59:47;100819.75;;;30.77;36.01
46944;BME280;32678;43.852;25.952;2022-09-09T15:04:47;100821.28;;;30.71;35.59
46944;BME280;32678;43.852;25.952;2022-09-09T15:09:45;100829.59;;;30.70;36.30
46944;BME280;32678;43.852;25.952;2022-09-09T15:14:45;100834.34;;;30.68;36.47
46944;BME280;32678;43.852;25.952;2022-09-09T15:19:42;100849.06;;;30.65;37.44
46944;BME280;32678;43.852;25.952;2022-09-09T15:24:38;100848.41;;;30.63;39.29
46944;BME280;32678;43.852;25.952;2022-09-09T15:29:38;100860.84;;;30.49;39.72
46944;BME280;32678;43.852;25.952;2022-09-09T15:34:35;100861.84;;;30.48;39.58
46944;BME280;32678;43.852;25.952;2022-09-09T15:39:32;100872.00;;;30.38;39.04
46944;BME280;32678;43.852;25.952;2022-09-09T15:44:40;100885.06;;;30.35;39.39
46944;BME280;32678;43.852;25.952;2022-09-09T15:49:40;100890.81;;;30.32;39.34
46944;BME280;32678;43.852;25.952;2022-09-09T15:54:36;100893.06;;;30.20;39.32
46944;BME280;32678;43.852;25.952;2022-09-09T15:59:34;100905.47;;;29.90;39.74
46944;BME280;32678;43.852;25.952;2022-09-09T16:04:31;100903.75;;;29.57;40.42
46944;BME280;32678;43.852;25.952;2022-09-09T16:09:32;100897.53;;;29.48;40.69
46944;BME280;32678;43.852;25.952;2022-09-09T16:14:29;100898.34;;;29.73;41.18
46944;BME280;32678;43.852;25.952;2022-09-09T16:19:30;100887.06;;;29.61;41.13
46944;BME280;32678;43.852;25.952;2022-09-09T16:24:37;100881.16;;;29.34;42.25
46944;BME280;32678;43.852;25.952;2022-09-09T16:29:34;100878.25;;;29.19;42.45
46944;BME280;32678;43.852;25.952;2022-09-09T16:34:31;100880.06;;;28.94;42.81
46944;BME280;32678;43.852;25.952;2022-09-09T16:39:29;100873.84;;;29.02;42.15
46944;BME280;32678;43.852;25.952;2022-09-09T16:44:27;100885.00;;;29.23;41.75
46944;BME280;32678;43.852;25.952;2022-09-09T16:49:23;100877.09;;;29.21;41.48
46944;BME280;32678;43.852;25.952;2022-09-09T16:54:21;100890.44;;;29.39;41.24
46944;BME280;32678;43.852;25.952;2022-09-09T16:59:53;100888.41;;;29.33;40.93
46944;BME280;32678;43.852;25.952;2022-09-09T17:05:48;100887.22;;;29.44;40.92
46944;BME280;32678;43.852;25.952;2022-09-09T17:10:59;100882.50;;;29.46;40.69
46944;BME280;32678;43.852;25.952;2022-09-09T17:15:57;100897.69;;;29.55;40.57
46944;BME280;32678;43.852;25.952;2022-09-09T17:21:03;100879.81;;;29.46;40.96
46944;BME280;32678;43.852;25.952;2022-09-09T17:26:00;100900.72;;;29.52;41.06
46944;BME280;32678;43.852;25.952;2022-09-09T17:31:03;100904.13;;;29.46;40.92
46944;BME280;32678;43.852;25.952;2022-09-09T17:36:07;100915.34;;;29.09;46.49
46944;BME280;32678;43.852;25.952;2022-09-09T17:46:28;100899.34;;;29.23;42.87
46944;BME280;32678;43.852;25.952;2022-09-09T17:51:32;100910.19;;;29.40;42.06
46944;BME280;32678;43.852;25.952;2022-09-09T17:56:30;100909.69;;;29.44;41.82
46944;BME280;32678;43.852;25.952;2022-09-09T18:01:32;100919.81;;;29.42;42.18
46944;BME280;32678;43.852;25.952;2022-09-09T18:06:45;100927.25;;;29.40;47.92
46944;BME280;32678;43.852;25.952;2022-09-09T18:11:45;100932.09;;;29.12;49.70
46944;BME280;32678;43.852;25.952;2022-09-09T18:16:42;100925.09;;;28.94;46.17
46944;BME280;32678;43.852;25.952;2022-09-09T18:21:40;100931.84;;;28.81;44.52
46944;BME280;32678;43.852;25.952;2022-09-09T18:26:42;100933.94;;;28.70;44.34
46944;BME280;32678;43.852;25.952;2022-09-09T18:31:41;100929.69;;;28.59;44.49
46944;BME280;32678;43.852;25.952;2022-09-09T18:36:39;100925.94;;;28.78;44.40
46944;BME280;32678;43.852;25.952;2022-09-09T18:41:37;100946.69;;;28.94;44.89
46944;BME280;32678;43.852;25.952;2022-09-09T18:46:39;100955.16;;;28.99;45.19
46944;BME280;32678;43.852;25.952;2022-09-09T18:51:38;100958.19;;;29.04;45.03
46944;BME280;32678;43.852;25.952;2022-09-09T18:56:37;100960.88;;;28.96;44.74
46944;BME280;32678;43.852;25.952;2022-09-09T19:01:34;100952.94;;;28.94;45.61
46944;BME280;32678;43.852;25.952;2022-09-09T19:06:32;100951.38;;;28.83;45.75
46944;BME280;32678;43.852;25.952;2022-09-09T19:11:29;100949.47;;;28.68;45.54
46944;BME280;32678;43.852;25.952;2022-09-09T19:16:27;100926.09;;;28.42;45.85
46944;BME280;32678;43.852;25.952;2022-09-09T19:21:44;100936.19;;;28.40;45.50
46944;BME280;32678;43.852;25.952;2022-09-09T19:26:42;100925.59;;;28.47;45.66
46944;BME280;32678;43.852;25.952;2022-09-09T19:31:39;100925.38;;;28.40;46.01
46944;BME280;32678;43.852;25.952;2022-09-09T19:36:41;100920.84;;;28.41;46.94
46944;BME280;32678;43.852;25.952;2022-09-09T19:41:42;100915.94;;;28.36;46.72
46944;BME280;32678;43.852;25.952;2022-09-09T19:46:40;100901.06;;;28.24;46.94
46944;BME280;32678;43.852;25.952;2022-09-09T19:51:37;100910.16;;;28.23;47.08
46944;BME280;32678;43.852;25.952;2022-09-09T19:56:35;100915.06;;;28.28;46.95
46944;BME280;32678;43.852;25.952;2022-09-09T20:01:33;100900.09;;;28.08;47.77
46944;BME280;32678;43.852;25.952;2022-09-09T20:06:36;100912.19;;;28.04;47.71
46944;BME280;32678;43.852;25.952;2022-09-09T20:11:35;100914.19;;;28.19;47.36
46944;BME280;32678;43.852;25.952;2022-09-09T20:16:34;100903.56;;;28.26;46.77
46944;BME280;32678;43.852;25.952;2022-09-09T20:21:33;100896.59;;;28.15;47.26
46944;BME280;32678;43.852;25.952;2022-09-09T20:26:34;100897.63;;;27.88;47.80
46944;BME280;32678;43.852;25.952;2022-09-09T20:31:44;100900.09;;;27.56;48.47
46944;BME280;32678;43.852;25.952;2022-09-09T20:36:44;100894.75;;;27.29;48.44
46944;BME280;32678;43.852;25.952;2022-09-09T20:41:45;100920.63;;;27.22;49.43
46944;BME280;32678;43.852;25.952;2022-09-09T20:46:52;100922.84;;;27.26;49.34
46944;BME280;32678;43.852;25.952;2022-09-09T20:52:02;100921.66;;;26.93;49.95
46944;BME280;32678;43.852;25.952;2022-09-09T20:56:59;100923.34;;;26.94;50.38
46944;BME280;32678;43.852;25.952;2022-09-09T21:02:01;100918.50;;;26.98;52.69
46944;BME280;32678;43.852;25.952;2022-09-09T21:07:19;100926.38;;;27.09;53.32
46944;BME280;32678;43.852;25.952;2022-09-09T21:12:22;100917.75;;;27.05;54.53
46944;BME280;32678;43.852;25.952;2022-09-09T21:17:23;100922.47;;;27.21;55.15
46944;BME280;32678;43.852;25.952;2022-09-09T21:22:23;100925.94;;;27.31;54.84
46944;BME280;32678;43.852;25.952;2022-09-09T21:27:29;100925.69;;;27.60;54.82
46944;BME280;32678;43.852;25.952;2022-09-09T21:32:36;100906.28;;;27.39;54.86
46944;BME280;32678;43.852;25.952;2022-09-09T21:37:37;100917.59;;;27.25;53.08
46944;BME280;32678;43.852;25.952;2022-09-09T21:42:34;100917.66;;;26.70;53.58
46944;BME280;32678;43.852;25.952;2022-09-09T21:47:31;100914.59;;;26.92;52.82
46944;BME280;32678;43.852;25.952;2022-09-09T21:52:28;100913.59;;;27.11;52.04
46944;BME280;32678;43.852;25.952;2022-09-09T21:57:27;100909.75;;;27.13;51.43
46944;BME280;32678;43.852;25.952;2022-09-09T22:02:24;100910.53;;;27.24;51.06
46944;BME280;32678;43.852;25.952;2022-09-09T22:07:23;100903.69;;;27.11;51.26
46944;BME280;32678;43.852;25.952;2022-09-09T22:12:20;100901.16;;;27.10;51.15
46944;BME280;32678;43.852;25.952;2022-09-09T22:17:17;100905.38;;;27.12;50.81
46944;BME280;32678;43.852;25.952;2022-09-09T22:22:19;100899.63;;;26.80;51.45
46944;BME280;32678;43.852;25.952;2022-09-09T22:27:17;100899.13;;;26.40;53.15
46944;BME280;32678;43.852;25.952;2022-09-09T22:32:13;100894.56;;;26.50;52.77
46944;BME280;32678;43.852;25.952;2022-09-09T22:37:10;100888.38;;;26.40;52.64
46944;BME280;32678;43.852;25.952;2022-09-09T22:42:07;100892.97;;;26.57;52.06
46944;BME280;32678;43.852;25.952;2022-09-09T22:47:05;100899.63;;;25.69;53.35
46944;BME280;32678;43.852;25.952;2022-09-09T22:52:02;100890.72;;;25.40;54.20
46944;BME280;32678;43.852;25.952;2022-09-09T22:56:58;100889.34;;;25.26;53.57
46944;BME280;32678;43.852;25.952;2022-09-09T23:01:55;100883.69;;;25.20;52.70
46944;BME280;32678;43.852;25.952;2022-09-09T23:06:54;100882.09;;;24.98;52.47
46944;BME280;32678;43.852;25.952;2022-09-09T23:11:51;100871.78;;;25.13;51.56
46944;BME280;32678;43.852;25.952;2022-09-09T23:16:48;100870.38;;;25.09;50.92
46944;BME280;32678;43.852;25.952;2022-09-09T23:21:47;100880.28;;;25.18;50.43
46944;BME280;32678;43.852;25.952;2022-09-09T23:26:46;100874.63;;;25.30;49.95
46944;BME280;32678;43.852;25.952;2022-09-09T23:31:43;100870.13;;;25.02;50.68
46944;BME280;32678;43.852;25.952;2022-09-09T23:36:40;100869.78;;;24.86;50.80
46944;BME280;32678;43.852;25.952;2022-09-09T23:41:37;100864.41;;;24.76;50.78
46944;BME280;32678;43.852;25.952;2022-09-09T23:46:35;100860.72;;;24.58;50.76
46944;BME280;32678;43.852;25.952;2022-09-09T23:51:32;100863.66;;;24.65;50.58
46944;BME280;32678;43.852;25.952;2022-09-09T23:56:30;100850.69;;;24.70;50.18
